sensor_id;sensor_type;location;lat;lon;timestamp;P1;durP1;ratioP1;P2;durP2;ratioP2
6280;SDS011;3173;48.204;11.612;2022-10-23T00:00:30;4.70;;;2.03;;
6280;SDS011;3173;48.204;11.612;2022-10-23T00:02:56;2.80;;;2.00;;
6280;SDS011;3173;48.204;11.612;2022-10-23T00:05:23;2.43;;;1.70;;
6280;SDS011;3173;48.204;11.612;2022-10-23T00:07:50;3.03;;;2.17;;
6280;SDS011;3173;48.204;11.612;2022-10-23T00:10:17;2.20;;;1.93;;
6280;SDS011;3173;48.204;11.612;2022-10-23T00:12:46;5.70;;;1.80;;
6280;SDS011;3173;48.204;11.612;2022-10-23T00:15:13;2.20;;;1.63;;
6280;SDS011;3173;48.204;11.612;2022-10-23T00:17:39;4.20;;;1.90;;
6280;SDS011;3173;48.204;11.612;2022-10-23T00:20:05;2.33;;;1.60;;
6280;SDS011;3173;48.204;11.612;2022-10-23T00:22:32;2.37;;;1.40;;
6280;SDS011;3173;48.204;11.612;2022-10-23T00:24:58;7.93;;;1.50;;
6280;SDS011;3173;48.204;11.612;2022-10-23T00:27:24;2.23;;;1.60;;
6280;SDS011;3173;48.204;11.612;2022-10-23T00:29:50;2.00;;;1.50;;
6280;SDS011;3173;48.204;11.612;2022-10-23T00:32:16;3.80;;;1.73;;
6280;SDS011;3173;48.204;11.612;2022-10-23T00:34:42;2.17;;;1.73;;
6280;SDS011;3173;48.204;11.612;2022-10-23T00:37:08;3.00;;;1.50;;
6280;SDS011;3173;48.204;11.612;2022-10-23T00:39:34;2.93;;;1.90;;
6280;SDS011;3173;48.204;11.612;2022-10-23T00:42:00;2.80;;;1.73;;
6280;SDS011;3173;48.204;11.612;2022-10-23T00:46:55;2.90;;;1.60;;
6280;SDS011;3173;48.204;11.612;2022-10-23T00:49:21;22.83;;;1.80;;
6280;SDS011;3173;48.204;11.612;2022-10-23T00:51:50;5.43;;;1.70;;
6280;SDS011;3173;48.204;11.612;2022-10-23T00:54:18;2.10;;;1.70;;
6280;SDS011;3173;48.204;11.612;2022-10-23T00:56:46;8.20;;;1.70;;
6280;SDS011;3173;48.204;11.612;2022-10-23T00:59:12;1.90;;;1.50;;
6280;SDS011;3173;48.204;11.612;2022-10-23T01:01:38;3.00;;;1.60;;
6280;SDS011;3173;48.204;11.612;2022-10-23T01:04:05;2.40;;;1.63;;
6280;SDS011;3173;48.204;11.612;2022-10-23T01:06:36;4.00;;;1.40;;
6280;SDS011;3173;48.204;11.612;2022-10-23T01:12:14;2.00;;;1.43;;
6280;SDS011;3173;48.204;11.612;2022-10-23T01:14:31;3.13;;;1.40;;
6280;SDS011;3173;48.204;11.612;2022-10-23T01:17:06;1.70;;;1.40;;
6280;SDS011;3173;48.204;11.612;2022-10-23T01:22:27;2.63;;;1.40;;
6280;SDS011;3173;48.204;11.612;2022-10-23T01:25:19;2.97;;;1.80;;
6280;SDS011;3173;48.204;11.612;2022-10-23T01:27:49;2.10;;;1.53;;
6280;SDS011;3173;48.204;11.612;2022-10-23T01:30:17;4.17;;;2.00;;
6280;SDS011;3173;48.204;11.612;2022-10-23T01:32:44;2.50;;;1.80;;
6280;SDS011;3173;48.204;11.612;2022-10-23T01:37:39;3.77;;;1.40;;
6280;SDS011;3173;48.204;11.612;2022-10-23T01:40:08;2.10;;;1.63;;
6280;SDS011;3173;48.204;11.612;2022-10-23T01:42:36;3.50;;;1.53;;
6280;SDS011;3173;48.204;11.612;2022-10-23T01:47:30;5.70;;;2.10;;
6280;SDS011;3173;48.204;11.612;2022-10-23T01:49:58;2.50;;;1.80;;
6280;SDS011;3173;48.204;11.612;2022-10-23T01:52:25;3.97;;;1.40;;
6280;SDS011;3173;48.204;11.612;2022-10-23T01:54:52;1.57;;;1.37;;
6280;SDS011;3173;48.204;11.612;2022-10-23T01:57:19;3.53;;;1.67;;
6280;SDS011;3173;48.204;11.612;2022-10-23T01:59:48;2.10;;;1.73;;
6280;SDS011;3173;48.204;11.612;2022-10-23T02:02:15;4.70;;;1.90;;
6280;SDS011;3173;48.204;11.612;2022-10-23T02:04:45;2.33;;;1.50;;
6280;SDS011;3173;48.204;11.612;2022-10-23T02:07:12;2.10;;;1.80;;
6280;SDS011;3173;48.204;11.612;2022-10-23T02:09:38;2.50;;;1.60;;
6280;SDS011;3173;48.204;11.612;2022-10-23T02:12:08;3.30;;;1.83;;
6280;SDS011;3173;48.204;11.612;2022-10-23T02:14:41;2.97;;;1.53;;
6280;SDS011;3173;48.204;11.612;2022-10-23T02:17:13;6.60;;;1.60;;
6280;SDS011;3173;48.204;11.612;2022-10-23T02:20:01;4.50;;;1.80;;
6280;SDS011;3173;48.204;11.612;2022-10-23T02:22:29;2.87;;;1.87;;
6280;SDS011;3173;48.204;11.612;2022-10-23T02:25:04;9.03;;;1.90;;
6280;SDS011;3173;48.204;11.612;2022-10-23T02:27:35;3.30;;;1.80;;
6280;SDS011;3173;48.204;11.612;2022-10-23T02:30:09;1.97;;;1.70;;
6280;SDS011;3173;48.204;11.612;2022-10-23T02:32:37;2.70;;;1.47;;
6280;SDS011;3173;48.204;11.612;2022-10-23T02:35:05;3.03;;;1.53;;
6280;SDS011;3173;48.204;11.612;2022-10-23T02:37:31;3.00;;;1.80;;
6280;SDS011;3173;48.204;11.612;2022-10-23T02:39:57;2.17;;;1.70;;
6280;SDS011;3173;48.204;11.612;2022-10-23T02:42:30;4.50;;;1.80;;
6280;SDS011;3173;48.204;11.612;2022-10-23T02:58:14;5.70;;;2.13;;
6280;SDS011;3173;48.204;11.612;2022-10-23T03:00:42;6.77;;;2.23;;
6280;SDS011;3173;48.204;11.612;2022-10-23T03:03:12;5.00;;;1.90;;
6280;SDS011;3173;48.204;11.612;2022-10-23T03:05:39;2.53;;;1.93;;
6280;SDS011;3173;48.204;11.612;2022-10-23T03:08:07;2.27;;;2.00;;
6280;SDS011;3173;48.204;11.612;2022-10-23T03:10:34;2.73;;;1.60;;
6280;SDS011;3173;48.204;11.612;2022-10-23T03:13:00;2.43;;;1.73;;
6280;SDS011;3173;48.204;11.612;2022-10-23T03:15:26;9.33;;;2.30;;
6280;SDS011;3173;48.204;11.612;2022-10-23T03:17:52;3.33;;;1.97;;
6280;SDS011;3173;48.204;11.612;2022-10-23T03:20:18;7.87;;;1.93;;
6280;SDS011;3173;48.204;11.612;2022-10-23T03:22:44;4.00;;;2.10;;
6280;SDS011;3173;48.204;11.612;2022-10-23T03:25:09;3.80;;;2.47;;
6280;SDS011;3173;48.204;11.612;2022-10-23T03:27:35;4.00;;;2.10;;
6280;SDS011;3173;48.204;11.612;2022-10-23T03:30:02;2.63;;;1.73;;
6280;SDS011;3173;48.204;11.612;2022-10-23T03:32:28;3.57;;;1.90;;
6280;SDS011;3173;48.204;11.612;2022-10-23T03:34:54;3.30;;;2.27;;
6280;SDS011;3173;48.204;11.612;2022-10-23T03:37:20;2.10;;;1.90;;
6280;SDS011;3173;48.204;11.612;2022-10-23T03:39:46;5.90;;;2.47;;
6280;SDS011;3173;48.204;11.612;2022-10-23T03:42:12;3.20;;;2.17;;
6280;SDS011;3173;48.204;11.612;2022-10-23T03:44:38;2.43;;;2.10;;
6280;SDS011;3173;48.204;11.612;2022-10-23T03:47:04;8.83;;;2.40;;
6280;SDS011;3173;48.204;11.612;2022-10-23T03:49:30;3.20;;;2.33;;
6280;SDS011;3173;48.204;11.612;2022-10-23T03:51:56;4.03;;;2.17;;
6280;SDS011;3173;48.204;11.612;2022-10-23T03:54:23;3.60;;;2.00;;
6280;SDS011;3173;48.204;11.612;2022-10-23T03:56:49;3.33;;;1.83;;
6280;SDS011;3173;48.204;11.612;2022-10-23T03:59:15;2.87;;;2.10;;
6280;SDS011;3173;48.204;11.612;2022-10-23T04:01:42;7.20;;;2.53;;
6280;SDS011;3173;48.204;11.612;2022-10-23T04:04:08;2.90;;;1.90;;
6280;SDS011;3173;48.204;11.612;2022-10-23T04:06:34;2.30;;;1.73;;
6280;SDS011;3173;48.204;11.612;2022-10-23T04:09:00;1.80;;;1.60;;
6280;SDS011;3173;48.204;11.612;2022-10-23T04:11:26;4.00;;;1.90;;
6280;SDS011;3173;48.204;11.612;2022-10-23T04:13:52;3.57;;;2.17;;
6280;SDS011;3173;48.204;11.612;2022-10-23T04:16:18;4.50;;;1.80;;
6280;SDS011;3173;48.204;11.612;2022-10-23T04:18:44;2.43;;;1.80;;
6280;SDS011;3173;48.204;11.612;2022-10-23T04:21:10;4.87;;;2.37;;
6280;SDS011;3173;48.204;11.612;2022-10-23T04:23:36;2.57;;;1.83;;
6280;SDS011;3173;48.204;11.612;2022-10-23T04:26:02;2.50;;;2.03;;
6280;SDS011;3173;48.204;11.612;2022-10-23T04:28:28;2.40;;;2.00;;
6280;SDS011;3173;48.204;11.612;2022-10-23T04:30:54;2.37;;;2.03;;
6280;SDS011;3173;48.204;11.612;2022-10-23T04:33:20;6.80;;;2.30;;
6280;SDS011;3173;48.204;11.612;2022-10-23T04:35:46;5.43;;;2.00;;
6280;SDS011;3173;48.204;11.612;2022-10-23T04:38:12;3.13;;;1.93;;
6280;SDS011;3173;48.204;11.612;2022-10-23T04:40:38;2.50;;;1.93;;
6280;SDS011;3173;48.204;11.612;2022-10-23T04:43:04;5.53;;;2.43;;
6280;SDS011;3173;48.204;11.612;2022-10-23T04:45:30;4.07;;;2.10;;
6280;SDS011;3173;48.204;11.612;2022-10-23T04:47:56;2.30;;;2.00;;
6280;SDS011;3173;48.204;11.612;2022-10-23T04:50:22;3.50;;;1.90;;
6280;SDS011;3173;48.204;11.612;2022-10-23T04:52:48;2.40;;;1.80;;
6280;SDS011;3173;48.204;11.612;2022-10-23T04:55:14;1.87;;;1.70;;
6280;SDS011;3173;48.204;11.612;2022-10-23T04:57:40;3.63;;;2.00;;
6280;SDS011;3173;48.204;11.612;2022-10-23T05:00:07;5.50;;;1.87;;
6280;SDS011;3173;48.204;11.612;2022-10-23T05:02:33;13.63;;;2.33;;
6280;SDS011;3173;48.204;11.612;2022-10-23T05:04:59;3.00;;;1.93;;
6280;SDS011;3173;48.204;11.612;2022-10-23T05:07:25;9.10;;;2.10;;
6280;SDS011;3173;48.204;11.612;2022-10-23T05:09:51;2.43;;;1.60;;
6280;SDS011;3173;48.204;11.612;2022-10-23T05:12:17;2.50;;;1.80;;
6280;SDS011;3173;48.204;11.612;2022-10-23T05:14:43;1.63;;;1.43;;
6280;SDS011;3173;48.204;11.612;2022-10-23T05:17:20;3.20;;;2.10;;
6280;SDS011;3173;48.204;11.612;2022-10-23T05:19:54;1.90;;;1.70;;
6280;SDS011;3173;48.204;11.612;2022-10-23T05:22:21;2.80;;;1.40;;
6280;SDS011;3173;48.204;11.612;2022-10-23T05:24:49;2.70;;;2.00;;
6280;SDS011;3173;48.204;11.612;2022-10-23T05:27:15;4.30;;;2.23;;
6280;SDS011;3173;48.204;11.612;2022-10-23T05:29:41;4.30;;;2.30;;
6280;SDS011;3173;48.204;11.612;2022-10-23T05:32:07;5.00;;;1.90;;
6280;SDS011;3173;48.204;11.612;2022-10-23T05:34:34;5.30;;;2.23;;
6280;SDS011;3173;48.204;11.612;2022-10-23T05:37:02;6.00;;;2.40;;
6280;SDS011;3173;48.204;11.612;2022-10-23T05:39:28;10.43;;;1.93;;
6280;SDS011;3173;48.204;11.612;2022-10-23T05:41:54;4.67;;;2.30;;
6280;SDS011;3173;48.204;11.612;2022-10-23T05:44:20;3.90;;;2.00;;
6280;SDS011;3173;48.204;11.612;2022-10-23T05:46:46;13.83;;;2.43;;
6280;SDS011;3173;48.204;11.612;2022-10-23T05:49:12;2.33;;;1.97;;
6280;SDS011;3173;48.204;11.612;2022-10-23T05:51:39;3.20;;;2.30;;
6280;SDS011;3173;48.204;11.612;2022-10-23T05:54:05;2.50;;;1.90;;
6280;SDS011;3173;48.204;11.612;2022-10-23T05:56:35;3.97;;;2.37;;
6280;SDS011;3173;48.204;11.612;2022-10-23T05:59:01;4.47;;;2.37;;
6280;SDS011;3173;48.204;11.612;2022-10-23T06:01:27;3.50;;;2.00;;
6280;SDS011;3173;48.204;11.612;2022-10-23T06:03:53;2.90;;;2.23;;
6280;SDS011;3173;48.204;11.612;2022-10-23T06:06:19;3.07;;;2.00;;
6280;SDS011;3173;48.204;11.612;2022-10-23T06:08:45;3.50;;;1.70;;
6280;SDS011;3173;48.204;11.612;2022-10-23T06:11:12;2.17;;;1.90;;
6280;SDS011;3173;48.204;11.612;2022-10-23T06:13:38;4.57;;;2.00;;
6280;SDS011;3173;48.204;11.612;2022-10-23T06:16:17;3.72;;;2.08;;
6280;SDS011;3173;48.204;11.612;2022-10-23T06:18:43;2.97;;;2.33;;
6280;SDS011;3173;48.204;11.612;2022-10-23T06:21:10;3.30;;;2.40;;
6280;SDS011;3173;48.204;11.612;2022-10-23T06:23:37;2.93;;;2.17;;
6280;SDS011;3173;48.204;11.612;2022-10-23T06:26:04;3.07;;;2.13;;
6280;SDS011;3173;48.204;11.612;2022-10-23T06:28:30;4.70;;;2.30;;
6280;SDS011;3173;48.204;11.612;2022-10-23T06:30:56;3.60;;;2.10;;
6280;SDS011;3173;48.204;11.612;2022-10-23T06:33:22;6.20;;;2.30;;
6280;SDS011;3173;48.204;11.612;2022-10-23T06:35:48;2.57;;;1.80;;
6280;SDS011;3173;48.204;11.612;2022-10-23T06:38:14;3.37;;;2.53;;
6280;SDS011;3173;48.204;11.612;2022-10-23T06:40:40;2.90;;;2.10;;
6280;SDS011;3173;48.204;11.612;2022-10-23T06:43:06;5.90;;;1.97;;
6280;SDS011;3173;48.204;11.612;2022-10-23T06:45:33;10.80;;;2.20;;
6280;SDS011;3173;48.204;11.612;2022-10-23T06:47:59;2.10;;;1.60;;
6280;SDS011;3173;48.204;11.612;2022-10-23T06:50:25;3.10;;;1.70;;
6280;SDS011;3173;48.204;11.612;2022-10-23T06:52:52;1.80;;;1.33;;
6280;SDS011;3173;48.204;11.612;2022-10-23T06:55:18;2.10;;;1.53;;
6280;SDS011;3173;48.204;11.612;2022-10-23T06:57:45;4.33;;;1.90;;
6280;SDS011;3173;48.204;11.612;2022-10-23T07:00:11;2.07;;;1.37;;
6280;SDS011;3173;48.204;11.612;2022-10-23T07:02:37;3.00;;;1.60;;
6280;SDS011;3173;48.204;11.612;2022-10-23T07:05:03;4.50;;;1.70;;
6280;SDS011;3173;48.204;11.612;2022-10-23T07:07:29;2.23;;;1.50;;
6280;SDS011;3173;48.204;11.612;2022-10-23T07:09:55;2.00;;;1.40;;
6280;SDS011;3173;48.204;11.612;2022-10-23T07:12:21;1.80;;;1.50;;
6280;SDS011;3173;48.204;11.612;2022-10-23T07:14:47;3.77;;;1.43;;
6280;SDS011;3173;48.204;11.612;2022-10-23T07:17:13;4.67;;;1.10;;
6280;SDS011;3173;48.204;11.612;2022-10-23T07:19:39;2.30;;;1.37;;
6280;SDS011;3173;48.204;11.612;2022-10-23T07:22:05;1.70;;;1.30;;
6280;SDS011;3173;48.204;11.612;2022-10-23T07:24:31;1.97;;;1.30;;
6280;SDS011;3173;48.204;11.612;2022-10-23T07:27:01;3.43;;;1.40;;
6280;SDS011;3173;48.204;11.612;2022-10-23T07:29:27;2.17;;;1.10;;
6280;SDS011;3173;48.204;11.612;2022-10-23T07:31:53;2.23;;;1.23;;
6280;SDS011;3173;48.204;11.612;2022-10-23T07:34:19;1.40;;;1.10;;
6280;SDS011;3173;48.204;11.612;2022-10-23T07:36:45;2.33;;;1.20;;
6280;SDS011;3173;48.204;11.612;2022-10-23T07:39:11;1.30;;;1.00;;
6280;SDS011;3173;48.204;11.612;2022-10-23T07:41:37;3.57;;;1.30;;
6280;SDS011;3173;48.204;11.612;2022-10-23T07:44:03;4.13;;;1.17;;
6280;SDS011;3173;48.204;11.612;2022-10-23T07:46:29;2.60;;;1.20;;
6280;SDS011;3173;48.204;11.612;2022-10-23T07:48:55;2.50;;;1.07;;
6280;SDS011;3173;48.204;11.612;2022-10-23T07:51:21;2.57;;;1.20;;
6280;SDS011;3173;48.204;11.612;2022-10-23T07:53:47;2.93;;;1.10;;
6280;SDS011;3173;48.204;11.612;2022-10-23T07:56:23;3.70;;;1.10;;
6280;SDS011;3173;48.204;11.612;2022-10-23T07:58:50;3.50;;;1.10;;
6280;SDS011;3173;48.204;11.612;2022-10-23T08:01:19;1.50;;;1.13;;
6280;SDS011;3173;48.204;11.612;2022-10-23T08:03:45;1.70;;;1.10;;
6280;SDS011;3173;48.204;11.612;2022-10-23T08:06:11;1.80;;;1.20;;
6280;SDS011;3173;48.204;11.612;2022-10-23T08:08:37;1.40;;;1.30;;
6280;SDS011;3173;48.204;11.612;2022-10-23T08:11:03;1.47;;;0.90;;
6280;SDS011;3173;48.204;11.612;2022-10-23T08:13:29;5.13;;;1.10;;
6280;SDS011;3173;48.204;11.612;2022-10-23T08:15:55;2.40;;;0.90;;
6280;SDS011;3173;48.204;11.612;2022-10-23T08:18:22;2.70;;;1.07;;
6280;SDS011;3173;48.204;11.612;2022-10-23T08:20:48;1.17;;;0.70;;
6280;SDS011;3173;48.204;11.612;2022-10-23T08:23:16;1.30;;;0.80;;
6280;SDS011;3173;48.204;11.612;2022-10-23T08:25:43;2.73;;;1.10;;
6280;SDS011;3173;48.204;11.612;2022-10-23T08:28:09;2.63;;;0.90;;
6280;SDS011;3173;48.204;11.612;2022-10-23T08:30:35;1.17;;;0.80;;
6280;SDS011;3173;48.204;11.612;2022-10-23T08:33:04;4.17;;;1.10;;
6280;SDS011;3173;48.204;11.612;2022-10-23T08:35:34;1.83;;;0.80;;
6280;SDS011;3173;48.204;11.612;2022-10-23T08:38:00;3.73;;;0.90;;
6280;SDS011;3173;48.204;11.612;2022-10-23T08:40:26;2.23;;;0.70;;
6280;SDS011;3173;48.204;11.612;2022-10-23T08:42:57;2.47;;;1.10;;
6280;SDS011;3173;48.204;11.612;2022-10-23T08:45:32;2.73;;;0.90;;
6280;SDS011;3173;48.204;11.612;2022-10-23T08:48:43;1.43;;;0.83;;
6280;SDS011;3173;48.204;11.612;2022-10-23T08:50:51;2.00;;;0.77;;
6280;SDS011;3173;48.204;11.612;2022-10-23T08:53:22;1.87;;;0.70;;
6280;SDS011;3173;48.204;11.612;2022-10-23T08:56:04;1.70;;;0.70;;
6280;SDS011;3173;48.204;11.612;2022-10-23T08:58:42;1.50;;;0.70;;
6280;SDS011;3173;48.204;11.612;2022-10-23T09:01:20;1.87;;;0.80;;
6280;SDS011;3173;48.204;11.612;2022-10-23T09:03:48;1.50;;;0.80;;
6280;SDS011;3173;48.204;11.612;2022-10-23T09:06:29;1.10;;;0.70;;
6280;SDS011;3173;48.204;11.612;2022-10-23T09:08:58;1.47;;;0.63;;
6280;SDS011;3173;48.204;11.612;2022-10-23T09:14:03;2.00;;;0.80;;
6280;SDS011;3173;48.204;11.612;2022-10-23T09:19:21;1.73;;;0.70;;
6280;SDS011;3173;48.204;11.612;2022-10-23T09:21:51;1.63;;;0.90;;
6280;SDS011;3173;48.204;11.612;2022-10-23T09:24:18;1.43;;;0.70;;
6280;SDS011;3173;48.204;11.612;2022-10-23T09:26:44;6.10;;;0.83;;
6280;SDS011;3173;48.204;11.612;2022-10-23T09:29:19;2.37;;;0.70;;
6280;SDS011;3173;48.204;11.612;2022-10-23T09:31:47;1.27;;;0.70;;
6280;SDS011;3173;48.204;11.612;2022-10-23T09:34:23;1.10;;;0.70;;
6280;SDS011;3173;48.204;11.612;2022-10-23T09:37:32;2.30;;;0.70;;
6280;SDS011;3173;48.204;11.612;2022-10-23T09:39:39;2.53;;;0.60;;
6280;SDS011;3173;48.204;11.612;2022-10-23T09:42:21;5.80;;;0.60;;
6280;SDS011;3173;48.204;11.612;2022-10-23T09:44:48;1.73;;;0.70;;
6280;SDS011;3173;48.204;11.612;2022-10-23T09:47:15;3.80;;;0.60;;
6280;SDS011;3173;48.204;11.612;2022-10-23T09:49:54;1.27;;;0.57;;
6280;SDS011;3173;48.204;11.612;2022-10-23T09:52:27;2.40;;;0.73;;
6280;SDS011;3173;48.204;11.612;2022-10-23T09:57:42;3.10;;;0.50;;
6280;SDS011;3173;48.204;11.612;2022-10-23T10:02:42;2.50;;;0.70;;
6280;SDS011;3173;48.204;11.612;2022-10-23T10:10:33;0.80;;;0.60;;
6280;SDS011;3173;48.204;11.612;2022-10-23T10:13:02;4.30;;;0.60;;
6280;SDS011;3173;48.204;11.612;2022-10-23T10:15:36;1.30;;;0.60;;
6280;SDS011;3173;48.204;11.612;2022-10-23T10:20:47;1.07;;;0.60;;
6280;SDS011;3173;48.204;11.612;2022-10-23T10:30:55;2.00;;;0.57;;
6280;SDS011;3173;48.204;11.612;2022-10-23T10:33:31;0.83;;;0.50;;
6280;SDS011;3173;48.204;11.612;2022-10-23T10:46:27;0.90;;;0.60;;
6280;SDS011;3173;48.204;11.612;2022-10-23T10:49:00;2.07;;;0.50;;
6280;SDS011;3173;48.204;11.612;2022-10-23T10:52:15;1.00;;;0.50;;
6280;SDS011;3173;48.204;11.612;2022-10-23T10:57:03;0.90;;;0.60;;
6280;SDS011;3173;48.204;11.612;2022-10-23T10:59:30;3.47;;;0.60;;
6280;SDS011;3173;48.204;11.612;2022-10-23T11:04:51;2.60;;;0.50;;
6280;SDS011;3173;48.204;11.612;2022-10-23T11:07:20;0.80;;;0.50;;
6280;SDS011;3173;48.204;11.612;2022-10-23T11:09:47;1.77;;;0.80;;
6280;SDS011;3173;48.204;11.612;2022-10-23T11:12:17;1.00;;;0.50;;
6280;SDS011;3173;48.204;11.612;2022-10-23T11:14:43;5.30;;;0.60;;
6280;SDS011;3173;48.204;11.612;2022-10-23T11:17:20;1.07;;;0.50;;
6280;SDS011;3173;48.204;11.612;2022-10-23T11:19:55;2.03;;;0.60;;
6280;SDS011;3173;48.204;11.612;2022-10-23T11:22:29;4.90;;;0.70;;
6280;SDS011;3173;48.204;11.612;2022-10-23T11:32:47;0.80;;;0.50;;
6280;SDS011;3173;48.204;11.612;2022-10-23T11:35:19;1.53;;;0.63;;
6280;SDS011;3173;48.204;11.612;2022-10-23T11:38:04;2.60;;;0.60;;
6280;SDS011;3173;48.204;11.612;2022-10-23T11:40:33;1.07;;;0.60;;
6280;SDS011;3173;48.204;11.612;2022-10-23T11:42:59;1.93;;;0.63;;
6280;SDS011;3173;48.204;11.612;2022-10-23T11:45:35;1.73;;;0.60;;
6280;SDS011;3173;48.204;11.612;2022-10-23T11:48:18;1.27;;;0.60;;
6280;SDS011;3173;48.204;11.612;2022-10-23T11:58:27;2.30;;;0.90;;
6280;SDS011;3173;48.204;11.612;2022-10-23T12:03:39;1.00;;;0.60;;
6280;SDS011;3173;48.204;11.612;2022-10-23T12:06:06;3.90;;;0.70;;
6280;SDS011;3173;48.204;11.612;2022-10-23T12:08:40;1.00;;;0.70;;
6280;SDS011;3173;48.204;11.612;2022-10-23T12:11:23;1.17;;;0.50;;
6280;SDS011;3173;48.204;11.612;2022-10-23T12:13:49;0.97;;;0.60;;
6280;SDS011;3173;48.204;11.612;2022-10-23T12:16:15;1.33;;;0.70;;
6280;SDS011;3173;48.204;11.612;2022-10-23T12:18:49;1.23;;;0.70;;
6280;SDS011;3173;48.204;11.612;2022-10-23T12:21:16;1.20;;;0.50;;
6280;SDS011;3173;48.204;11.612;2022-10-23T12:31:37;1.60;;;0.63;;
6280;SDS011;3173;48.204;11.612;2022-10-23T12:34:11;1.20;;;0.60;;
6280;SDS011;3173;48.204;11.612;2022-10-23T12:39:24;3.50;;;0.80;;
6280;SDS011;3173;48.204;11.612;2022-10-23T12:41:50;4.17;;;0.60;;
6280;SDS011;3173;48.204;11.612;2022-10-23T12:44:16;2.20;;;0.80;;
6280;SDS011;3173;48.204;11.612;2022-10-23T12:46:45;0.97;;;0.60;;
6280;SDS011;3173;48.204;11.612;2022-10-23T12:49:13;2.77;;;0.60;;
6280;SDS011;3173;48.204;11.612;2022-10-23T12:51:39;3.73;;;0.90;;
6280;SDS011;3173;48.204;11.612;2022-10-23T12:54:15;4.50;;;0.80;;
6280;SDS011;3173;48.204;11.612;2022-10-23T12:56:41;1.87;;;0.70;;
6280;SDS011;3173;48.204;11.612;2022-10-23T12:59:20;1.10;;;0.70;;
6280;SDS011;3173;48.204;11.612;2022-10-23T13:01:47;2.37;;;0.60;;
6280;SDS011;3173;48.204;11.612;2022-10-23T13:06:45;1.30;;;0.70;;
6280;SDS011;3173;48.204;11.612;2022-10-23T13:09:19;1.40;;;0.80;;
6280;SDS011;3173;48.204;11.612;2022-10-23T13:11:47;1.10;;;0.63;;
6280;SDS011;3173;48.204;11.612;2022-10-23T13:14:13;1.60;;;0.70;;
6280;SDS011;3173;48.204;11.612;2022-10-23T13:16:39;1.00;;;0.70;;
6280;SDS011;3173;48.204;11.612;2022-10-23T13:19:05;1.80;;;0.70;;
6280;SDS011;3173;48.204;11.612;2022-10-23T13:21:31;3.53;;;0.93;;
6280;SDS011;3173;48.204;11.612;2022-10-23T13:23:57;1.77;;;0.77;;
6280;SDS011;3173;48.204;11.612;2022-10-23T13:28:55;1.77;;;0.80;;
6280;SDS011;3173;48.204;11.612;2022-10-23T13:31:29;1.50;;;0.80;;
6280;SDS011;3173;48.204;11.612;2022-10-23T13:36:24;1.40;;;0.80;;
6280;SDS011;3173;48.204;11.612;2022-10-23T13:41:26;1.33;;;0.70;;
6280;SDS011;3173;48.204;11.612;2022-10-23T13:43:52;1.67;;;0.77;;
6280;SDS011;3173;48.204;11.612;2022-10-23T13:46:20;1.60;;;0.70;;
6280;SDS011;3173;48.204;11.612;2022-10-23T13:48:46;1.50;;;0.70;;
6280;SDS011;3173;48.204;11.612;2022-10-23T13:51:14;2.30;;;0.77;;
6280;SDS011;3173;48.204;11.612;2022-10-23T13:53:40;1.73;;;0.70;;
6280;SDS011;3173;48.204;11.612;2022-10-23T13:56:08;2.93;;;0.70;;
6280;SDS011;3173;48.204;11.612;2022-10-23T13:58:35;1.40;;;0.80;;
6280;SDS011;3173;48.204;11.612;2022-10-23T14:01:01;3.00;;;0.63;;
6280;SDS011;3173;48.204;11.612;2022-10-23T14:03:27;0.90;;;0.60;;
6280;SDS011;3173;48.204;11.612;2022-10-23T14:05:52;2.70;;;0.80;;
6280;SDS011;3173;48.204;11.612;2022-10-23T14:08:18;3.70;;;0.80;;
6280;SDS011;3173;48.204;11.612;2022-10-23T14:10:44;1.50;;;1.13;;
6280;SDS011;3173;48.204;11.612;2022-10-23T14:13:10;2.80;;;0.87;;
6280;SDS011;3173;48.204;11.612;2022-10-23T14:15:36;2.00;;;0.83;;
6280;SDS011;3173;48.204;11.612;2022-10-23T14:18:03;1.30;;;0.80;;
6280;SDS011;3173;48.204;11.612;2022-10-23T14:20:29;2.27;;;0.70;;
6280;SDS011;3173;48.204;11.612;2022-10-23T14:22:55;3.10;;;0.90;;
6280;SDS011;3173;48.204;11.612;2022-10-23T14:25:21;2.50;;;0.70;;
6280;SDS011;3173;48.204;11.612;2022-10-23T14:27:47;4.30;;;0.90;;
6280;SDS011;3173;48.204;11.612;2022-10-23T14:30:14;3.20;;;1.10;;
6280;SDS011;3173;48.204;11.612;2022-10-23T14:32:40;1.50;;;0.83;;
6280;SDS011;3173;48.204;11.612;2022-10-23T14:35:06;3.70;;;0.80;;
6280;SDS011;3173;48.204;11.612;2022-10-23T14:37:34;1.77;;;0.80;;
6280;SDS011;3173;48.204;11.612;2022-10-23T14:40:00;3.20;;;0.83;;
6280;SDS011;3173;48.204;11.612;2022-10-23T14:42:26;1.60;;;0.93;;
6280;SDS011;3173;48.204;11.612;2022-10-23T14:44:58;3.97;;;1.00;;
6280;SDS011;3173;48.204;11.612;2022-10-23T14:47:24;5.17;;;1.00;;
6280;SDS011;3173;48.204;11.612;2022-10-23T14:49:50;3.80;;;0.90;;
6280;SDS011;3173;48.204;11.612;2022-10-23T14:52:17;1.77;;;1.37;;
6280;SDS011;3173;48.204;11.612;2022-10-23T14:54:43;3.00;;;1.10;;
6280;SDS011;3173;48.204;11.612;2022-10-23T14:57:09;4.37;;;0.83;;
6280;SDS011;3173;48.204;11.612;2022-10-23T14:59:39;1.87;;;1.10;;
6280;SDS011;3173;48.204;11.612;2022-10-23T15:02:05;4.20;;;0.87;;
6280;SDS011;3173;48.204;11.612;2022-10-23T15:04:31;3.53;;;1.03;;
6280;SDS011;3173;48.204;11.612;2022-10-23T15:06:57;4.80;;;1.20;;
6280;SDS011;3173;48.204;11.612;2022-10-23T15:09:23;3.67;;;0.90;;
6280;SDS011;3173;48.204;11.612;2022-10-23T15:11:49;5.57;;;1.00;;
6280;SDS011;3173;48.204;11.612;2022-10-23T15:14:15;1.47;;;0.90;;
6280;SDS011;3173;48.204;11.612;2022-10-23T15:16:41;4.57;;;0.80;;
6280;SDS011;3173;48.204;11.612;2022-10-23T15:19:10;1.47;;;0.90;;
6280;SDS011;3173;48.204;11.612;2022-10-23T15:21:36;4.27;;;3.13;;
6280;SDS011;3173;48.204;11.612;2022-10-23T15:24:02;1.30;;;0.80;;
6280;SDS011;3173;48.204;11.612;2022-10-23T15:26:28;2.07;;;0.93;;
6280;SDS011;3173;48.204;11.612;2022-10-23T15:28:55;1.37;;;0.90;;
6280;SDS011;3173;48.204;11.612;2022-10-23T15:33:57;6.30;;;1.10;;
6280;SDS011;3173;48.204;11.612;2022-10-23T15:36:23;2.10;;;1.20;;
6280;SDS011;3173;48.204;11.612;2022-10-23T15:38:49;2.90;;;1.07;;
6280;SDS011;3173;48.204;11.612;2022-10-23T15:41:18;2.10;;;0.90;;
6280;SDS011;3173;48.204;11.612;2022-10-23T15:43:46;4.70;;;1.30;;
6280;SDS011;3173;48.204;11.612;2022-10-23T15:46:12;3.73;;;1.00;;
6280;SDS011;3173;48.204;11.612;2022-10-23T15:48:38;2.90;;;1.20;;
6280;SDS011;3173;48.204;11.612;2022-10-23T15:51:04;2.43;;;1.20;;
6280;SDS011;3173;48.204;11.612;2022-10-23T15:53:30;2.00;;;1.30;;
6280;SDS011;3173;48.204;11.612;2022-10-23T15:55:57;3.47;;;1.00;;
6280;SDS011;3173;48.204;11.612;2022-10-23T15:58:24;1.80;;;1.00;;
6280;SDS011;3173;48.204;11.612;2022-10-23T16:00:50;1.73;;;1.20;;
6280;SDS011;3173;48.204;11.612;2022-10-23T16:03:16;6.63;;;1.30;;
6280;SDS011;3173;48.204;11.612;2022-10-23T16:05:42;2.17;;;1.20;;
6280;SDS011;3173;48.204;11.612;2022-10-23T16:08:08;2.10;;;1.23;;
6280;SDS011;3173;48.204;11.612;2022-10-23T16:10:39;1.93;;;1.00;;
6280;SDS011;3173;48.204;11.612;2022-10-23T16:13:05;3.20;;;1.20;;
6280;SDS011;3173;48.204;11.612;2022-10-23T16:15:33;1.77;;;1.10;;
6280;SDS011;3173;48.204;11.612;2022-10-23T16:17:59;8.50;;;1.53;;
6280;SDS011;3173;48.204;11.612;2022-10-23T16:20:26;2.67;;;1.20;;
6280;SDS011;3173;48.204;11.612;2022-10-23T16:22:52;3.23;;;1.27;;
6280;SDS011;3173;48.204;11.612;2022-10-23T16:25:18;8.73;;;1.00;;
6280;SDS011;3173;48.204;11.612;2022-10-23T16:27:45;4.33;;;1.20;;
6280;SDS011;3173;48.204;11.612;2022-10-23T16:30:11;4.57;;;1.40;;
6280;SDS011;3173;48.204;11.612;2022-10-23T16:32:38;2.50;;;1.30;;
6280;SDS011;3173;48.204;11.612;2022-10-23T16:35:04;4.53;;;1.30;;
6280;SDS011;3173;48.204;11.612;2022-10-23T16:37:30;3.40;;;1.20;;
6280;SDS011;3173;48.204;11.612;2022-10-23T16:39:57;4.20;;;1.20;;
6280;SDS011;3173;48.204;11.612;2022-10-23T16:42:24;3.00;;;1.43;;
6280;SDS011;3173;48.204;11.612;2022-10-23T16:44:50;5.43;;;1.30;;
6280;SDS011;3173;48.204;11.612;2022-10-23T16:47:16;3.27;;;1.57;;
6280;SDS011;3173;48.204;11.612;2022-10-23T16:49:42;3.90;;;1.53;;
6280;SDS011;3173;48.204;11.612;2022-10-23T16:52:08;4.20;;;1.53;;
6280;SDS011;3173;48.204;11.612;2022-10-23T16:54:34;7.67;;;1.93;;